sensor_id;sensor_type;location;lat;lon;timestamp;P1;durP1;ratioP1;P2;durP2;ratioP2
7997;SDS011;4044;49.814;7.828;2023-05-06T00:00:00;1.83;;;1.73;;
7997;SDS011;4044;49.814;7.828;2023-05-06T00:02:26;2.60;;;2.10;;
7997;SDS011;4044;49.814;7.828;2023-05-06T00:04:53;2.23;;;2.03;;
7997;SDS011;4044;49.814;7.828;2023-05-06T00:07:19;4.27;;;2.50;;
7997;SDS011;4044;49.814;7.828;2023-05-06T00:09:45;3.03;;;2.00;;
7997;SDS011;4044;49.814;7.828;2023-05-06T00:12:10;4.17;;;2.10;;
7997;SDS011;4044;49.814;7.828;2023-05-06T00:14:36;2.83;;;2.17;;
7997;SDS011;4044;49.814;7.828;2023-05-06T00:17:01;2.30;;;2.10;;
7997;SDS011;4044;49.814;7.828;2023-05-06T00:19:27;2.10;;;2.00;;
7997;SDS011;4044;49.814;7.828;2023-05-06T00:21:52;2.60;;;2.40;;
7997;SDS011;4044;49.814;7.828;2023-05-06T00:24:19;2.60;;;2.40;;
7997;SDS011;4044;49.814;7.828;2023-05-06T00:26:45;4.97;;;2.57;;
7997;SDS011;4044;49.814;7.828;2023-05-06T00:29:10;3.80;;;2.30;;
7997;SDS011;4044;49.814;7.828;2023-05-06T00:31:36;2.37;;;2.17;;
7997;SDS011;4044;49.814;7.828;2023-05-06T00:34:01;3.93;;;2.57;;
7997;SDS011;4044;49.814;7.828;2023-05-06T00:36:27;2.80;;;2.60;;
7997;SDS011;4044;49.814;7.828;2023-05-06T00:38:52;3.23;;;2.70;;
7997;SDS011;4044;49.814;7.828;2023-05-06T00:41:18;3.00;;;2.67;;
7997;SDS011;4044;49.814;7.828;2023-05-06T00:43:43;4.80;;;2.43;;
7997;SDS011;4044;49.814;7.828;2023-05-06T00:46:09;3.73;;;2.80;;
7997;SDS011;4044;49.814;7.828;2023-05-06T00:48:35;3.20;;;3.00;;
7997;SDS011;4044;49.814;7.828;2023-05-06T00:51:01;3.67;;;2.97;;
7997;SDS011;4044;49.814;7.828;2023-05-06T00:53:27;3.30;;;2.53;;
7997;SDS011;4044;49.814;7.828;2023-05-06T00:55:52;5.10;;;2.60;;
7997;SDS011;4044;49.814;7.828;2023-05-06T00:58:18;4.07;;;2.70;;
7997;SDS011;4044;49.814;7.828;2023-05-06T01:00:44;2.80;;;2.60;;
7997;SDS011;4044;49.814;7.828;2023-05-06T01:03:10;3.40;;;2.70;;
7997;SDS011;4044;49.814;7.828;2023-05-06T01:05:58;2.93;;;2.73;;
7997;SDS011;4044;49.814;7.828;2023-05-06T01:08:44;2.87;;;2.60;;
7997;SDS011;4044;49.814;7.828;2023-05-06T01:11:36;3.23;;;2.43;;
7997;SDS011;4044;49.814;7.828;2023-05-06T01:14:20;2.90;;;2.30;;
7997;SDS011;4044;49.814;7.828;2023-05-06T01:16:50;4.47;;;2.80;;
7997;SDS011;4044;49.814;7.828;2023-05-06T01:19:28;2.60;;;2.40;;
7997;SDS011;4044;49.814;7.828;2023-05-06T01:22:03;4.17;;;2.83;;
7997;SDS011;4044;49.814;7.828;2023-05-06T01:24:34;3.00;;;2.80;;
7997;SDS011;4044;49.814;7.828;2023-05-06T01:27:00;4.87;;;2.60;;
7997;SDS011;4044;49.814;7.828;2023-05-06T01:29:26;2.97;;;2.63;;
7997;SDS011;4044;49.814;7.828;2023-05-06T01:31:52;3.47;;;2.53;;
7997;SDS011;4044;49.814;7.828;2023-05-06T01:34:25;3.43;;;3.10;;
7997;SDS011;4044;49.814;7.828;2023-05-06T01:37:00;4.27;;;3.07;;
7997;SDS011;4044;49.814;7.828;2023-05-06T01:39:47;2.93;;;2.73;;
7997;SDS011;4044;49.814;7.828;2023-05-06T01:42:14;3.53;;;3.20;;
7997;SDS011;4044;49.814;7.828;2023-05-06T01:44:40;3.63;;;3.23;;
7997;SDS011;4044;49.814;7.828;2023-05-06T01:47:07;5.10;;;3.10;;
7997;SDS011;4044;49.814;7.828;2023-05-06T01:49:35;2.93;;;2.73;;
7997;SDS011;4044;49.814;7.828;2023-05-06T01:52:00;2.90;;;2.70;;
7997;SDS011;4044;49.814;7.828;2023-05-06T01:54:26;4.60;;;3.27;;
7997;SDS011;4044;49.814;7.828;2023-05-06T01:56:52;3.67;;;2.60;;
7997;SDS011;4044;49.814;7.828;2023-05-06T01:59:18;3.23;;;2.63;;
7997;SDS011;4044;49.814;7.828;2023-05-06T02:01:43;4.10;;;2.70;;
7997;SDS011;4044;49.814;7.828;2023-05-06T02:04:09;4.97;;;3.03;;
7997;SDS011;4044;49.814;7.828;2023-05-06T02:06:34;3.30;;;3.00;;
7997;SDS011;4044;49.814;7.828;2023-05-06T02:09:00;7.23;;;3.60;;
7997;SDS011;4044;49.814;7.828;2023-05-06T02:11:25;4.43;;;3.30;;
7997;SDS011;4044;49.814;7.828;2023-05-06T02:13:51;6.47;;;3.90;;
7997;SDS011;4044;49.814;7.828;2023-05-06T02:16:16;4.17;;;3.70;;
7997;SDS011;4044;49.814;7.828;2023-05-06T02:18:42;5.67;;;3.00;;
7997;SDS011;4044;49.814;7.828;2023-05-06T02:21:08;4.33;;;3.50;;
7997;SDS011;4044;49.814;7.828;2023-05-06T02:23:34;4.20;;;3.50;;
7997;SDS011;4044;49.814;7.828;2023-05-06T02:25:59;5.23;;;3.27;;
7997;SDS011;4044;49.814;7.828;2023-05-06T02:28:25;3.90;;;3.50;;
7997;SDS011;4044;49.814;7.828;2023-05-06T02:30:54;3.83;;;3.47;;
7997;SDS011;4044;49.814;7.828;2023-05-06T02:33:20;4.50;;;3.37;;
7997;SDS011;4044;49.814;7.828;2023-05-06T02:35:46;4.47;;;3.17;;
7997;SDS011;4044;49.814;7.828;2023-05-06T02:38:11;4.60;;;3.20;;
7997;SDS011;4044;49.814;7.828;2023-05-06T02:40:37;5.20;;;3.33;;
7997;SDS011;4044;49.814;7.828;2023-05-06T02:43:02;5.60;;;3.40;;
7997;SDS011;4044;49.814;7.828;2023-05-06T02:45:28;5.17;;;3.23;;
7997;SDS011;4044;49.814;7.828;2023-05-06T02:47:53;3.80;;;3.40;;
7997;SDS011;4044;49.814;7.828;2023-05-06T02:50:19;4.00;;;3.30;;
7997;SDS011;4044;49.814;7.828;2023-05-06T02:52:44;3.53;;;3.23;;
7997;SDS011;4044;49.814;7.828;2023-05-06T02:55:10;5.70;;;3.13;;
7997;SDS011;4044;49.814;7.828;2023-05-06T02:57:36;3.80;;;3.40;;
7997;SDS011;4044;49.814;7.828;2023-05-06T03:00:01;3.67;;;3.20;;
7997;SDS011;4044;49.814;7.828;2023-05-06T03:02:27;3.77;;;3.40;;
7997;SDS011;4044;49.814;7.828;2023-05-06T03:04:52;7.97;;;3.53;;
7997;SDS011;4044;49.814;7.828;2023-05-06T03:07:18;4.07;;;3.00;;
7997;SDS011;4044;49.814;7.828;2023-05-06T03:09:44;3.20;;;3.00;;
7997;SDS011;4044;49.814;7.828;2023-05-06T03:12:09;5.17;;;3.50;;
7997;SDS011;4044;49.814;7.828;2023-05-06T03:14:35;4.33;;;3.43;;
7997;SDS011;4044;49.814;7.828;2023-05-06T03:17:01;4.60;;;2.77;;
7997;SDS011;4044;49.814;7.828;2023-05-06T03:19:27;3.33;;;2.80;;
7997;SDS011;4044;49.814;7.828;2023-05-06T03:21:52;5.47;;;2.60;;
7997;SDS011;4044;49.814;7.828;2023-05-06T03:24:18;4.30;;;2.57;;
7997;SDS011;4044;49.814;7.828;2023-05-06T03:26:44;3.40;;;2.80;;
7997;SDS011;4044;49.814;7.828;2023-05-06T03:29:09;3.97;;;3.13;;
7997;SDS011;4044;49.814;7.828;2023-05-06T03:31:35;4.67;;;3.00;;
7997;SDS011;4044;49.814;7.828;2023-05-06T03:34:01;7.23;;;3.77;;
7997;SDS011;4044;49.814;7.828;2023-05-06T03:36:26;3.97;;;3.50;;
7997;SDS011;4044;49.814;7.828;2023-05-06T03:38:52;4.43;;;2.90;;
7997;SDS011;4044;49.814;7.828;2023-05-06T03:41:18;3.37;;;3.00;;
7997;SDS011;4044;49.814;7.828;2023-05-06T03:43:43;3.27;;;2.97;;
7997;SDS011;4044;49.814;7.828;2023-05-06T03:46:09;3.40;;;2.77;;
7997;SDS011;4044;49.814;7.828;2023-05-06T03:48:35;3.63;;;3.10;;
7997;SDS011;4044;49.814;7.828;2023-05-06T03:51:00;5.97;;;3.27;;
7997;SDS011;4044;49.814;7.828;2023-05-06T03:53:27;3.13;;;2.83;;
7997;SDS011;4044;49.814;7.828;2023-05-06T03:55:52;6.07;;;3.27;;
7997;SDS011;4044;49.814;7.828;2023-05-06T03:58:18;3.87;;;2.93;;
7997;SDS011;4044;49.814;7.828;2023-05-06T04:00:43;4.90;;;2.97;;
7997;SDS011;4044;49.814;7.828;2023-05-06T04:03:09;5.23;;;2.80;;
7997;SDS011;4044;49.814;7.828;2023-05-06T04:05:35;4.07;;;3.10;;
7997;SDS011;4044;49.814;7.828;2023-05-06T04:08:00;8.00;;;3.07;;
7997;SDS011;4044;49.814;7.828;2023-05-06T04:10:26;3.10;;;2.90;;
7997;SDS011;4044;49.814;7.828;2023-05-06T04:12:51;5.13;;;2.90;;
7997;SDS011;4044;49.814;7.828;2023-05-06T04:15:17;3.40;;;3.10;;
7997;SDS011;4044;49.814;7.828;2023-05-06T04:17:42;4.07;;;3.57;;
7997;SDS011;4044;49.814;7.828;2023-05-06T04:20:08;3.53;;;2.90;;
7997;SDS011;4044;49.814;7.828;2023-05-06T04:22:35;4.37;;;3.03;;
7997;SDS011;4044;49.814;7.828;2023-05-06T04:25:02;3.40;;;3.10;;
7997;SDS011;4044;49.814;7.828;2023-05-06T04:27:28;5.03;;;3.30;;
7997;SDS011;4044;49.814;7.828;2023-05-06T04:29:55;3.40;;;3.10;;
7997;SDS011;4044;49.814;7.828;2023-05-06T04:32:21;3.00;;;2.70;;
7997;SDS011;4044;49.814;7.828;2023-05-06T04:34:49;2.90;;;2.70;;
7997;SDS011;4044;49.814;7.828;2023-05-06T04:37:15;5.33;;;3.43;;
7997;SDS011;4044;49.814;7.828;2023-05-06T04:39:43;3.53;;;3.17;;
7997;SDS011;4044;49.814;7.828;2023-05-06T04:42:11;3.53;;;3.23;;
7997;SDS011;4044;49.814;7.828;2023-05-06T04:44:38;4.13;;;3.37;;
7997;SDS011;4044;49.814;7.828;2023-05-06T04:47:03;3.67;;;2.93;;
7997;SDS011;4044;49.814;7.828;2023-05-06T04:49:29;5.07;;;3.00;;
7997;SDS011;4044;49.814;7.828;2023-05-06T04:51:55;3.83;;;2.90;;
7997;SDS011;4044;49.814;7.828;2023-05-06T04:54:21;5.20;;;2.93;;
7997;SDS011;4044;49.814;7.828;2023-05-06T04:56:46;3.67;;;3.20;;
7997;SDS011;4044;49.814;7.828;2023-05-06T04:59:12;3.23;;;2.53;;
7997;SDS011;4044;49.814;7.828;2023-05-06T05:01:37;3.77;;;2.90;;
7997;SDS011;4044;49.814;7.828;2023-05-06T05:04:03;3.33;;;3.03;;
7997;SDS011;4044;49.814;7.828;2023-05-06T05:06:28;3.90;;;2.90;;
7997;SDS011;4044;49.814;7.828;2023-05-06T05:08:55;3.40;;;2.90;;
7997;SDS011;4044;49.814;7.828;2023-05-06T05:11:21;3.50;;;3.13;;
7997;SDS011;4044;49.814;7.828;2023-05-06T05:13:47;3.53;;;3.23;;
7997;SDS011;4044;49.814;7.828;2023-05-06T05:16:12;3.90;;;2.90;;
7997;SDS011;4044;49.814;7.828;2023-05-06T05:18:38;2.93;;;2.70;;
7997;SDS011;4044;49.814;7.828;2023-05-06T05:21:03;3.93;;;3.33;;
7997;SDS011;4044;49.814;7.828;2023-05-06T05:23:29;3.77;;;3.33;;
7997;SDS011;4044;49.814;7.828;2023-05-06T05:25:54;3.10;;;2.90;;
7997;SDS011;4044;49.814;7.828;2023-05-06T05:28:20;4.80;;;2.80;;
7997;SDS011;4044;49.814;7.828;2023-05-06T05:30:45;3.03;;;2.83;;
7997;SDS011;4044;49.814;7.828;2023-05-06T05:33:11;2.70;;;2.50;;
7997;SDS011;4044;49.814;7.828;2023-05-06T05:35:36;3.47;;;2.70;;
7997;SDS011;4044;49.814;7.828;2023-05-06T05:38:02;3.17;;;2.97;;
7997;SDS011;4044;49.814;7.828;2023-05-06T05:40:27;3.13;;;2.60;;
7997;SDS011;4044;49.814;7.828;2023-05-06T05:42:53;3.67;;;2.70;;
7997;SDS011;4044;49.814;7.828;2023-05-06T05:45:19;2.60;;;2.50;;
7997;SDS011;4044;49.814;7.828;2023-05-06T05:47:45;2.80;;;2.60;;
7997;SDS011;4044;49.814;7.828;2023-05-06T05:50:10;3.67;;;3.10;;
7997;SDS011;4044;49.814;7.828;2023-05-06T05:52:36;3.50;;;2.73;;
7997;SDS011;4044;49.814;7.828;2023-05-06T05:55:01;5.07;;;2.90;;
7997;SDS011;4044;49.814;7.828;2023-05-06T05:57:27;4.47;;;2.80;;
7997;SDS011;4044;49.814;7.828;2023-05-06T05:59:53;2.73;;;2.53;;
7997;SDS011;4044;49.814;7.828;2023-05-06T06:02:18;4.27;;;2.73;;
7997;SDS011;4044;49.814;7.828;2023-05-06T06:04:44;2.70;;;2.50;;
7997;SDS011;4044;49.814;7.828;2023-05-06T06:07:09;3.53;;;2.77;;
7997;SDS011;4044;49.814;7.828;2023-05-06T06:09:35;3.00;;;2.60;;
7997;SDS011;4044;49.814;7.828;2023-05-06T06:12:00;2.77;;;2.57;;
7997;SDS011;4044;49.814;7.828;2023-05-06T06:14:26;3.47;;;2.63;;
7997;SDS011;4044;49.814;7.828;2023-05-06T06:16:51;3.03;;;2.63;;
7997;SDS011;4044;49.814;7.828;2023-05-06T06:19:17;4.23;;;2.70;;
7997;SDS011;4044;49.814;7.828;2023-05-06T06:21:42;3.40;;;2.63;;
7997;SDS011;4044;49.814;7.828;2023-05-06T06:24:08;3.85;;;2.88;;
7997;SDS011;4044;49.814;7.828;2023-05-06T06:26:33;2.90;;;2.57;;
7997;SDS011;4044;49.814;7.828;2023-05-06T06:28:59;3.13;;;2.60;;
7997;SDS011;4044;49.814;7.828;2023-05-06T06:31:25;3.03;;;2.83;;
7997;SDS011;4044;49.814;7.828;2023-05-06T06:33:50;3.35;;;3.15;;
7997;SDS011;4044;49.814;7.828;2023-05-06T06:36:16;3.30;;;2.97;;
7997;SDS011;4044;49.814;7.828;2023-05-06T06:38:41;3.30;;;3.00;;
7997;SDS011;4044;49.814;7.828;2023-05-06T06:41:07;3.65;;;3.10;;
7997;SDS011;4044;49.814;7.828;2023-05-06T06:43:33;3.07;;;2.77;;
7997;SDS011;4044;49.814;7.828;2023-05-06T06:45:58;4.07;;;2.70;;
7997;SDS011;4044;49.814;7.828;2023-05-06T06:48:24;4.85;;;2.95;;
7997;SDS011;4044;49.814;7.828;2023-05-06T06:50:50;4.47;;;3.15;;
7997;SDS011;4044;49.814;7.828;2023-05-06T06:53:16;3.50;;;3.20;;
7997;SDS011;4044;49.814;7.828;2023-05-06T06:55:42;4.57;;;3.35;;
7997;SDS011;4044;49.814;7.828;2023-05-06T06:58:08;4.05;;;3.65;;
7997;SDS011;4044;49.814;7.828;2023-05-06T07:00:33;4.65;;;3.45;;
7997;SDS011;4044;49.814;7.828;2023-05-06T07:02:59;4.07;;;3.78;;
7997;SDS011;4044;49.814;7.828;2023-05-06T07:05:25;4.30;;;3.90;;
7997;SDS011;4044;49.814;7.828;2023-05-06T07:07:51;3.63;;;3.33;;
7997;SDS011;4044;49.814;7.828;2023-05-06T07:10:16;3.72;;;3.28;;
7997;SDS011;4044;49.814;7.828;2023-05-06T07:12:42;3.60;;;3.30;;
7997;SDS011;4044;49.814;7.828;2023-05-06T07:15:08;4.60;;;3.50;;
7997;SDS011;4044;49.814;7.828;2023-05-06T07:17:33;4.50;;;3.10;;
7997;SDS011;4044;49.814;7.828;2023-05-06T07:19:59;3.75;;;3.45;;
7997;SDS011;4044;49.814;7.828;2023-05-06T07:22:26;3.72;;;3.45;;
7997;SDS011;4044;49.814;7.828;2023-05-06T07:24:51;3.47;;;3.17;;
7997;SDS011;4044;49.814;7.828;2023-05-06T07:27:17;3.33;;;3.08;;
7997;SDS011;4044;49.814;7.828;2023-05-06T07:29:43;3.63;;;2.97;;
7997;SDS011;4044;49.814;7.828;2023-05-06T07:32:08;2.92;;;2.72;;
7997;SDS011;4044;49.814;7.828;2023-05-06T07:34:34;4.03;;;2.90;;
7997;SDS011;4044;49.814;7.828;2023-05-06T07:37:00;3.22;;;2.90;;
7997;SDS011;4044;49.814;7.828;2023-05-06T07:39:26;5.10;;;2.80;;
7997;SDS011;4044;49.814;7.828;2023-05-06T07:41:51;2.83;;;2.63;;
7997;SDS011;4044;49.814;7.828;2023-05-06T07:44:17;2.60;;;2.40;;
7997;SDS011;4044;49.814;7.828;2023-05-06T07:46:42;2.70;;;2.40;;
7997;SDS011;4044;49.814;7.828;2023-05-06T07:49:08;2.50;;;2.30;;
7997;SDS011;4044;49.814;7.828;2023-05-06T07:51:33;2.45;;;2.17;;
7997;SDS011;4044;49.814;7.828;2023-05-06T07:53:59;3.00;;;2.40;;
7997;SDS011;4044;49.814;7.828;2023-05-06T07:56:25;4.07;;;2.10;;
7997;SDS011;4044;49.814;7.828;2023-05-06T07:58:50;1.77;;;1.67;;
7997;SDS011;4044;49.814;7.828;2023-05-06T08:01:16;2.53;;;2.20;;
7997;SDS011;4044;49.814;7.828;2023-05-06T08:03:42;3.40;;;2.20;;
7997;SDS011;4044;49.814;7.828;2023-05-06T08:06:07;2.30;;;2.10;;
7997;SDS011;4044;49.814;7.828;2023-05-06T08:08:33;2.40;;;2.20;;
7997;SDS011;4044;49.814;7.828;2023-05-06T08:10:58;2.05;;;1.85;;
7997;SDS011;4044;49.814;7.828;2023-05-06T08:13:25;2.90;;;1.80;;
7997;SDS011;4044;49.814;7.828;2023-05-06T08:15:52;1.80;;;1.60;;
7997;SDS011;4044;49.814;7.828;2023-05-06T08:18:17;2.03;;;1.83;;
7997;SDS011;4044;49.814;7.828;2023-05-06T08:20:43;1.70;;;1.60;;
7997;SDS011;4044;49.814;7.828;2023-05-06T08:23:09;1.92;;;1.83;;
7997;SDS011;4044;49.814;7.828;2023-05-06T08:25:34;2.25;;;2.10;;
7997;SDS011;4044;49.814;7.828;2023-05-06T08:28:00;2.65;;;2.00;;
7997;SDS011;4044;49.814;7.828;2023-05-06T08:30:25;2.08;;;1.83;;
7997;SDS011;4044;49.814;7.828;2023-05-06T08:32:51;2.17;;;1.90;;
7997;SDS011;4044;49.814;7.828;2023-05-06T08:35:16;2.25;;;1.90;;
7997;SDS011;4044;49.814;7.828;2023-05-06T08:37:42;1.80;;;1.60;;
7997;SDS011;4044;49.814;7.828;2023-05-06T08:40:12;2.05;;;1.85;;
7997;SDS011;4044;49.814;7.828;2023-05-06T08:42:44;2.25;;;1.98;;
7997;SDS011;4044;49.814;7.828;2023-05-06T08:45:11;1.85;;;1.75;;
7997;SDS011;4044;49.814;7.828;2023-05-06T08:47:37;2.03;;;1.75;;
7997;SDS011;4044;49.814;7.828;2023-05-06T08:50:03;1.95;;;1.80;;
7997;SDS011;4044;49.814;7.828;2023-05-06T08:52:29;2.00;;;1.80;;
7997;SDS011;4044;49.814;7.828;2023-05-06T08:54:56;1.75;;;1.60;;
7997;SDS011;4044;49.814;7.828;2023-05-06T08:57:25;1.70;;;1.60;;
7997;SDS011;4044;49.814;7.828;2023-05-06T08:59:54;1.50;;;1.40;;
7997;SDS011;4044;49.814;7.828;2023-05-06T09:02:20;1.92;;;1.58;;
7997;SDS011;4044;49.814;7.828;2023-05-06T09:04:47;1.48;;;1.35;;
7997;SDS011;4044;49.814;7.828;2023-05-06T09:07:13;2.28;;;1.52;;
7997;SDS011;4044;49.814;7.828;2023-05-06T09:09:39;2.00;;;1.67;;
7997;SDS011;4044;49.814;7.828;2023-05-06T09:12:10;2.08;;;1.60;;
7997;SDS011;4044;49.814;7.828;2023-05-06T09:14:37;1.30;;;1.27;;
7997;SDS011;4044;49.814;7.828;2023-05-06T09:17:03;1.45;;;1.35;;
7997;SDS011;4044;49.814;7.828;2023-05-06T09:19:28;1.10;;;1.10;;
7997;SDS011;4044;49.814;7.828;2023-05-06T09:21:54;1.30;;;1.20;;
7997;SDS011;4044;49.814;7.828;2023-05-06T09:24:21;2.38;;;1.30;;
7997;SDS011;4044;49.814;7.828;2023-05-06T09:26:47;4.13;;;1.38;;
7997;SDS011;4044;49.814;7.828;2023-05-06T09:29:16;1.00;;;0.90;;
7997;SDS011;4044;49.814;7.828;2023-05-06T09:31:42;1.40;;;1.30;;
7997;SDS011;4044;49.814;7.828;2023-05-06T09:34:09;1.38;;;1.27;;
7997;SDS011;4044;49.814;7.828;2023-05-06T09:36:35;1.13;;;1.10;;
7997;SDS011;4044;49.814;7.828;2023-05-06T09:39:01;1.30;;;1.20;;
7997;SDS011;4044;49.814;7.828;2023-05-06T09:41:28;1.42;;;1.33;;
7997;SDS011;4044;49.814;7.828;2023-05-06T09:43:54;1.45;;;1.10;;
7997;SDS011;4044;49.814;7.828;2023-05-06T09:46:21;1.55;;;1.17;;
7997;SDS011;4044;49.814;7.828;2023-05-06T09:48:49;1.20;;;1.20;;
7997;SDS011;4044;49.814;7.828;2023-05-06T09:51:15;1.27;;;1.17;;
7997;SDS011;4044;49.814;7.828;2023-05-06T09:53:41;1.08;;;1.00;;
7997;SDS011;4044;49.814;7.828;2023-05-06T09:56:08;1.17;;;1.08;;
7997;SDS011;4044;49.814;7.828;2023-05-06T09:58:34;1.23;;;1.13;;
7997;SDS011;4044;49.814;7.828;2023-05-06T10:01:01;1.02;;;1.02;;
7997;SDS011;4044;49.814;7.828;2023-05-06T10:03:28;1.65;;;1.10;;
7997;SDS011;4044;49.814;7.828;2023-05-06T10:05:55;0.80;;;0.80;;
7997;SDS011;4044;49.814;7.828;2023-05-06T10:08:23;1.65;;;1.05;;
7997;SDS011;4044;49.814;7.828;2023-05-06T10:10:49;1.27;;;1.17;;
7997;SDS011;4044;49.814;7.828;2023-05-06T10:13:15;1.00;;;0.90;;
7997;SDS011;4044;49.814;7.828;2023-05-06T10:15:41;0.85;;;0.85;;
7997;SDS011;4044;49.814;7.828;2023-05-06T10:18:10;0.90;;;0.90;;
7997;SDS011;4044;49.814;7.828;2023-05-06T10:20:37;1.00;;;0.90;;
7997;SDS011;4044;49.814;7.828;2023-05-06T10:28:03;2.22;;;0.95;;
7997;SDS011;4044;49.814;7.828;2023-05-06T10:30:31;1.02;;;1.00;;
7997;SDS011;4044;49.814;7.828;2023-05-06T10:32:58;1.65;;;0.90;;
7997;SDS011;4044;49.814;7.828;2023-05-06T10:38:08;0.90;;;0.90;;
7997;SDS011;4044;49.814;7.828;2023-05-06T10:40:37;1.08;;;0.98;;
7997;SDS011;4044;49.814;7.828;2023-05-06T10:48:28;1.23;;;1.08;;
7997;SDS011;4044;49.814;7.828;2023-05-06T10:56:37;1.08;;;0.80;;
7997;SDS011;4044;49.814;7.828;2023-05-06T10:59:05;0.80;;;0.80;;
7997;SDS011;4044;49.814;7.828;2023-05-06T11:01:35;1.58;;;1.45;;
7997;SDS011;4044;49.814;7.828;2023-05-06T11:04:08;1.40;;;1.30;;
7997;SDS011;4044;49.814;7.828;2023-05-06T11:09:15;1.20;;;1.10;;
7997;SDS011;4044;49.814;7.828;2023-05-06T11:11:45;1.20;;;1.20;;
7997;SDS011;4044;49.814;7.828;2023-05-06T11:14:12;1.52;;;1.30;;
7997;SDS011;4044;49.814;7.828;2023-05-06T11:16:45;1.17;;;1.17;;
7997;SDS011;4044;49.814;7.828;2023-05-06T11:19:17;1.70;;;1.20;;
7997;SDS011;4044;49.814;7.828;2023-05-06T11:21:47;0.95;;;0.95;;
7997;SDS011;4044;49.814;7.828;2023-05-06T11:24:13;1.13;;;1.02;;
7997;SDS011;4044;49.814;7.828;2023-05-06T11:26:45;1.00;;;1.00;;
7997;SDS011;4044;49.814;7.828;2023-05-06T11:29:14;1.30;;;1.30;;
7997;SDS011;4044;49.814;7.828;2023-05-06T11:31:40;0.98;;;0.98;;
7997;SDS011;4044;49.814;7.828;2023-05-06T11:34:07;1.10;;;1.10;;
7997;SDS011;4044;49.814;7.828;2023-05-06T11:36:35;1.30;;;1.25;;
7997;SDS011;4044;49.814;7.828;2023-05-06T11:39:08;1.15;;;1.15;;
7997;SDS011;4044;49.814;7.828;2023-05-06T11:41:37;0.90;;;0.90;;
7997;SDS011;4044;49.814;7.828;2023-05-06T11:44:03;1.25;;;1.10;;
7997;SDS011;4044;49.814;7.828;2023-05-06T11:46:30;1.20;;;1.10;;
7997;SDS011;4044;49.814;7.828;2023-05-06T11:48:57;1.50;;;1.17;;
7997;SDS011;4044;49.814;7.828;2023-05-06T11:51:22;1.85;;;1.00;;
7997;SDS011;4044;49.814;7.828;2023-05-06T11:53:48;1.10;;;1.10;;
7997;SDS011;4044;49.814;7.828;2023-05-06T11:56:14;1.02;;;0.82;;
7997;SDS011;4044;49.814;7.828;2023-05-06T11:58:39;1.10;;;1.10;;
7997;SDS011;4044;49.814;7.828;2023-05-06T12:01:05;4.53;;;1.10;;
7997;SDS011;4044;49.814;7.828;2023-05-06T12:03:31;0.77;;;0.77;;
7997;SDS011;4044;49.814;7.828;2023-05-06T12:05:57;0.85;;;0.85;;
7997;SDS011;4044;49.814;7.828;2023-05-06T12:08:23;1.08;;;1.00;;
7997;SDS011;4044;49.814;7.828;2023-05-06T12:10:57;1.30;;;1.20;;
7997;SDS011;4044;49.814;7.828;2023-05-06T12:13:27;1.48;;;1.38;;
7997;SDS011;4044;49.814;7.828;2023-05-06T12:15:54;1.35;;;1.27;;
7997;SDS011;4044;49.814;7.828;2023-05-06T12:18:20;1.95;;;1.10;;
7997;SDS011;4044;49.814;7.828;2023-05-06T12:20:47;1.33;;;1.30;;
7997;SDS011;4044;49.814;7.828;2023-05-06T12:23:13;1.20;;;1.20;;
7997;SDS011;4044;49.814;7.828;2023-05-06T12:25:40;1.48;;;1.38;;
7997;SDS011;4044;49.814;7.828;2023-05-06T12:30:45;2.00;;;1.60;;
7997;SDS011;4044;49.814;7.828;2023-05-06T12:33:10;1.63;;;1.42;;
7997;SDS011;4044;49.814;7.828;2023-05-06T12:35:37;1.50;;;1.40;;
7997;SDS011;4044;49.814;7.828;2023-05-06T12:38:07;1.70;;;1.60;;
7997;SDS011;4044;49.814;7.828;2023-05-06T12:40:33;1.60;;;1.50;;
7997;SDS011;4044;49.814;7.828;2023-05-06T12:42:58;1.80;;;1.70;;
7997;SDS011;4044;49.814;7.828;2023-05-06T12:45:24;2.00;;;1.50;;
7997;SDS011;4044;49.814;7.828;2023-05-06T12:47:51;2.13;;;1.67;;
7997;SDS011;4044;49.814;7.828;2023-05-06T12:53:02;1.40;;;1.30;;
7997;SDS011;4044;49.814;7.828;2023-05-06T12:55:29;1.60;;;1.50;;
7997;SDS011;4044;49.814;7.828;2023-05-06T12:57:58;1.60;;;1.50;;
7997;SDS011;4044;49.814;7.828;2023-05-06T13:00:24;1.27;;;1.27;;
7997;SDS011;4044;49.814;7.828;2023-05-06T13:02:50;1.52;;;1.40;;
7997;SDS011;4044;49.814;7.828;2023-05-06T13:05:15;1.33;;;1.30;;
7997;SDS011;4044;49.814;7.828;2023-05-06T13:07:41;1.00;;;1.00;;
7997;SDS011;4044;49.814;7.828;2023-05-06T13:10:07;1.20;;;1.20;;
7997;SDS011;4044;49.814;7.828;2023-05-06T13:12:32;1.10;;;1.10;;
7997;SDS011;4044;49.814;7.828;2023-05-06T13:14:58;1.25;;;1.20;;
7997;SDS011;4044;49.814;7.828;2023-05-06T13:17:24;1.50;;;1.40;;
7997;SDS011;4044;49.814;7.828;2023-05-06T13:19:50;1.20;;;1.10;;
7997;SDS011;4044;49.814;7.828;2023-05-06T13:22:20;1.20;;;1.20;;
7997;SDS011;4044;49.814;7.828;2023-05-06T13:24:46;1.38;;;1.33;;
7997;SDS011;4044;49.814;7.828;2023-05-06T13:27:12;1.35;;;1.30;;
7997;SDS011;4044;49.814;7.828;2023-05-06T13:29:37;2.03;;;1.60;;
7997;SDS011;4044;49.814;7.828;2023-05-06T13:32:03;2.03;;;1.40;;
7997;SDS011;4044;49.814;7.828;2023-05-06T13:34:29;1.48;;;1.38;;
7997;SDS011;4044;49.814;7.828;2023-05-06T13:36:55;1.02;;;1.02;;
7997;SDS011;4044;49.814;7.828;2023-05-06T13:39:20;1.25;;;1.10;;
7997;SDS011;4044;49.814;7.828;2023-05-06T13:41:47;1.15;;;1.10;;
7997;SDS011;4044;49.814;7.828;2023-05-06T13:44:14;1.10;;;1.00;;
7997;SDS011;4044;49.814;7.828;2023-05-06T13:46:40;2.85;;;1.20;;
7997;SDS011;4044;49.814;7.828;2023-05-06T13:49:05;1.55;;;1.10;;
7997;SDS011;4044;49.814;7.828;2023-05-06T13:51:31;1.15;;;1.02;;
7997;SDS011;4044;49.814;7.828;2023-05-06T13:53:58;1.13;;;1.10;;
7997;SDS011;4044;49.814;7.828;2023-05-06T13:56:27;1.55;;;1.02;;
7997;SDS011;4044;49.814;7.828;2023-05-06T13:58:52;1.75;;;0.90;;
7997;SDS011;4044;49.814;7.828;2023-05-06T14:01:19;1.10;;;1.00;;
7997;SDS011;4044;49.814;7.828;2023-05-06T14:03:45;1.10;;;1.10;;
7997;SDS011;4044;49.814;7.828;2023-05-06T14:06:10;1.08;;;1.00;;
7997;SDS011;4044;49.814;7.828;2023-05-06T14:08:36;1.13;;;0.98;;
7997;SDS011;4044;49.814;7.828;2023-05-06T14:11:01;1.10;;;1.00;;
7997;SDS011;4044;49.814;7.828;2023-05-06T14:13:29;1.20;;;1.10;;
7997;SDS011;4044;49.814;7.828;2023-05-06T14:15:55;4.53;;;1.42;;
7997;SDS011;4044;49.814;7.828;2023-05-06T14:18:21;1.10;;;0.95;;
7997;SDS011;4044;49.814;7.828;2023-05-06T14:20:47;1.70;;;1.30;;
7997;SDS011;4044;49.814;7.828;2023-05-06T14:23:12;1.17;;;1.00;;
7997;SDS011;4044;49.814;7.828;2023-05-06T14:25:38;0.88;;;0.88;;
7997;SDS011;4044;49.814;7.828;2023-05-06T14:28:04;1.23;;;1.23;;
7997;SDS011;4044;49.814;7.828;2023-05-06T14:30:29;1.17;;;1.10;;
7997;SDS011;4044;49.814;7.828;2023-05-06T14:32:56;2.47;;;1.10;;
7997;SDS011;4044;49.814;7.828;2023-05-06T14:35:22;1.45;;;0.90;;
7997;SDS011;4044;49.814;7.828;2023-05-06T14:37:48;1.30;;;1.20;;
7997;SDS011;4044;49.814;7.828;2023-05-06T14:40:14;1.17;;;1.08;;
7997;SDS011;4044;49.814;7.828;2023-05-06T14:42:40;1.10;;;1.10;;
7997;SDS011;4044;49.814;7.828;2023-05-06T14:45:05;1.48;;;1.00;;
7997;SDS011;4044;49.814;7.828;2023-05-06T14:47:31;1.70;;;1.08;;
7997;SDS011;4044;49.814;7.828;2023-05-06T14:49:57;1.08;;;1.00;;
7997;SDS011;4044;49.814;7.828;2023-05-06T14:52:23;1.75;;;1.05;;
7997;SDS011;4044;49.814;7.828;2023-05-06T14:54:48;1.45;;;1.30;;
7997;SDS011;4044;49.814;7.828;2023-05-06T14:57:14;1.20;;;1.20;;
7997;SDS011;4044;49.814;7.828;2023-05-06T14:59:39;1.67;;;1.10;;
7997;SDS011;4044;49.814;7.828;2023-05-06T15:02:06;1.05;;;1.05;;
7997;SDS011;4044;49.814;7.828;2023-05-06T15:04:33;1.13;;;1.13;;
7997;SDS011;4044;49.814;7.828;2023-05-06T15:06:59;1.40;;;1.30;;
7997;SDS011;4044;49.814;7.828;2023-05-06T15:09:24;1.02;;;1.02;;
7997;SDS011;4044;49.814;7.828;2023-05-06T15:11:50;1.20;;;1.10;;
7997;SDS011;4044;49.814;7.828;2023-05-06T15:14:16;0.95;;;0.95;;
7997;SDS011;4044;49.814;7.828;2023-05-06T15:16:42;1.50;;;1.30;;
7997;SDS011;4044;49.814;7.828;2023-05-06T15:19:07;1.00;;;1.00;;
7997;SDS011;4044;49.814;7.828;2023-05-06T15:21:33;1.42;;;1.10;;
7997;SDS011;4044;49.814;7.828;2023-05-06T15:23:59;1.60;;;1.10;;
7997;SDS011;4044;49.814;7.828;2023-05-06T15:26:25;1.40;;;1.30;;
7997;SDS011;4044;49.814;7.828;2023-05-06T15:28:51;1.27;;;1.15;;
7997;SDS011;4044;49.814;7.828;2023-05-06T15:31:16;1.30;;;1.20;;
7997;SDS011;4044;49.814;7.828;2023-05-06T15:33:42;1.00;;;1.00;;
7997;SDS011;4044;49.814;7.828;2023-05-06T15:36:07;1.15;;;1.13;;